首页
METAR-TAF:

METAR-TAF

机场 :

杜蒂戈林, 印度

纬度: 8-43-27N, 经度: 78-01-33E, 海拔: 39米

当前天气观测

该预报发布于12分钟前的02:00 UTC
风速3节,风向西南
温度 28°C
湿度 74%
气压 1005 hPa
能見度: 6000
少量云层高于1800英尺
多云层高于10000英尺

METAR: VOTK 220200Z 23003KT 6000 FEW018 BKN100 28/23 Q1005 NOSIG

时间: 07:42 (02:12 UTC)


TAF: 丢失

超过4000个机场的气象观测和天气预报(METAR&TAF报告)。

可查询的气象台以黄色和红色小点在地图上表示。

将鼠标移到小点上方,可查看气象台名称。

然后点击查看天气观测和预报。

如需切换地图:点击带黑十字的绿色按钮放大地图;点击带横线的绿色按钮缩小地图;或者点击绿色箭头查看邻近地区的地图。


METAR-TAF: